Kinokawa Maru — 3FXG2 — position and weather

sailwx.info

Track history (hours):
 
Tides and Currents Weather Stations Pressure Air Temp Water Temp Dewpoint Dewpoint Depression Visibility Wind Speed Wind Dir Waves Ship Positions

Kinokawa Maru

Last reported at 2017-Sep-27 08:34 UTC. Time now 2017-Nov-20 21:00 UTC.
Position N 33°55' E 134°56'.
Warning: this ship's position is 54 days out of date.

Length 293 m; draft 9.9 m.

Type: Cargo ship. MMSI: 351787000.

Date/timePositionNaut miles runAvg speedWind from/ knotsBaromVisibWave heightAir tempDewpointWater temp
2017-Sep-27 08:34N 33°55' E 134°56'113.8
2017-Sep-27 08:27N 33°56' E 134°56'613.8
2017-Sep-27 08:00N 34°02' E 134°57'714.1
2017-Sep-27 07:30N 34°09' E 134°58'510.6
2017-Sep-27 07:00N 34°15' E 134°57'612.9
2017-Sep-27 06:30N 34°21' E 134°60'713.8
2017-Sep-27 06:00N 34°27' E 135°03'713.1
2017-Sep-27 05:30N 34°33' E 135°07'4 8.3
2017-Sep-27 05:00N 34°36' E 135°03'510.8
2017-Sep-27 04:30N 34°36' E 134°56'612.1
2017-Sep-27 04:00N 34°34' E 134°50'6 9.3
2017-Sep-27 03:19N 34°35' E 134°42'514.3
2017-Sep-27 02:57N 34°39' E 134°47'5 0.6
2017-Sep-26 19:20N 34°43' E 134°50'0 0.0
2017-Sep-26 18:32N 34°43' E 134°50'  
2017-Sep-20 08:38N 34°41' E 134°50'1 7.4
2017-Sep-20 08:30N 34°41' E 134°49'2 0.2
2017-Sep-19 23:09N 34°40' E 134°47'0 0.0
2017-Sep-19 22:51N 34°40' E 134°47'0 0.0
2017-Sep-19 22:21N 34°40' E 134°47'0 0.0
2017-Sep-19 13:45N 34°40' E 134°47'0 0.1
2017-Sep-19 11:39N 34°40' E 134°47'0 0.1
2017-Sep-19 11:27N 34°40' E 134°47'0 0.1
2017-Sep-19 10:39N 34°40' E 134°47'0 0.0
2017-Sep-19 10:21N 34°40' E 134°47'0 0.0
2017-Sep-18 21:15N 34°40' E 134°47'0 0.1
2017-Sep-18 20:45N 34°40' E 134°47'0 0.2
2017-Sep-18 20:21N 34°40' E 134°47'0 0.1
2017-Sep-18 19:57N 34°40' E 134°47'1 1.6
2017-Sep-18 19:30N 34°39' E 134°46'5 8.8
2017-Sep-18 18:56N 34°35' E 134°42'511.1
2017-Sep-18 18:30N 34°34' E 134°48'713.2
2017-Sep-18 18:00N 34°36' E 134°55'510.4
2017-Sep-18 17:30N 34°37' E 135°02'3 7.1
2017-Sep-18 17:00N 34°35' E 135°05'2 3.3
2017-Sep-18 16:30N 34°34' E 135°06'4 7.1
2017-Sep-18 16:00N 34°30' E 135°06'5 9.1
2017-Sep-18 15:30N 34°26' E 135°04'611.7
2017-Sep-18 15:00N 34°21' E 135°01'611.6
2017-Sep-18 14:30N 34°15' E 134°59'510.2
2017-Sep-18 14:00N 34°10' E 135°00'4 7.4
2017-Sep-18 13:31N 34°06' E 134°60'3 6.2
2017-Sep-18 13:01N 34°03' E 134°59'2 4.7
2017-Sep-18 12:31N 34°01' E 134°59'3 5.8
2017-Sep-18 12:00N 33°58' E 134°59'3 5.5
2017-Sep-18 11:30N 33°55' E 134°59'3 6.1
2017-Sep-18 10:57N 33°52' E 134°59'  
Track history (hours):
 
Tides and Currents Weather Stations Pressure Air Temp Water Temp Dewpoint Dewpoint Depression Visibility Wind Speed Wind Dir Waves Ship Positions

Kinokawa Maru

Last reported at 2017-Sep-27 08:34 UTC. Time now 2017-Nov-20 21:00 UTC.
Position N 33°55' E 134°56'.
Warning: this ship's position is 54 days out of date.

Length 293 m; draft 9.9 m.

Type: Cargo ship. MMSI: 351787000.

Date/timePositionNaut miles runAvg speedWind from/ knotsBaromVisibWave heightAir tempDewpointWater temp
2017-Sep-27 08:34N 33°55' E 134°56'113.8
2017-Sep-27 08:27N 33°56' E 134°56'613.8
2017-Sep-27 08:00N 34°02' E 134°57'714.1
2017-Sep-27 07:30N 34°09' E 134°58'510.6
2017-Sep-27 07:00N 34°15' E 134°57'612.9
2017-Sep-27 06:30N 34°21' E 134°60'713.8
2017-Sep-27 06:00N 34°27' E 135°03'713.1
2017-Sep-27 05:30N 34°33' E 135°07'4 8.3
2017-Sep-27 05:00N 34°36' E 135°03'510.8
2017-Sep-27 04:30N 34°36' E 134°56'612.1
2017-Sep-27 04:00N 34°34' E 134°50'6 9.3
2017-Sep-27 03:19N 34°35' E 134°42'514.3
2017-Sep-27 02:57N 34°39' E 134°47'5 0.6
2017-Sep-26 19:20N 34°43' E 134°50'0 0.0
2017-Sep-26 18:32N 34°43' E 134°50'  
2017-Sep-20 08:38N 34°41' E 134°50'1 7.4
2017-Sep-20 08:30N 34°41' E 134°49'2 0.2
2017-Sep-19 23:09N 34°40' E 134°47'0 0.0
2017-Sep-19 22:51N 34°40' E 134°47'0 0.0
2017-Sep-19 22:21N 34°40' E 134°47'0 0.0
2017-Sep-19 13:45N 34°40' E 134°47'0 0.1
2017-Sep-19 11:39N 34°40' E 134°47'0 0.1
2017-Sep-19 11:27N 34°40' E 134°47'0 0.1
2017-Sep-19 10:39N 34°40' E 134°47'0 0.0
2017-Sep-19 10:21N 34°40' E 134°47'0 0.0
2017-Sep-18 21:15N 34°40' E 134°47'0 0.1
2017-Sep-18 20:45N 34°40' E 134°47'0 0.2
2017-Sep-18 20:21N 34°40' E 134°47'0 0.1
2017-Sep-18 19:57N 34°40' E 134°47'1 1.6
2017-Sep-18 19:30N 34°39' E 134°46'5 8.8
2017-Sep-18 18:56N 34°35' E 134°42'511.1
2017-Sep-18 18:30N 34°34' E 134°48'713.2
2017-Sep-18 18:00N 34°36' E 134°55'510.4
2017-Sep-18 17:30N 34°37' E 135°02'3 7.1
2017-Sep-18 17:00N 34°35' E 135°05'2 3.3
2017-Sep-18 16:30N 34°34' E 135°06'4 7.1
2017-Sep-18 16:00N 34°30' E 135°06'5 9.1
2017-Sep-18 15:30N 34°26' E 135°04'611.7
2017-Sep-18 15:00N 34°21' E 135°01'611.6
2017-Sep-18 14:30N 34°15' E 134°59'510.2
2017-Sep-18 14:00N 34°10' E 135°00'4 7.4
2017-Sep-18 13:31N 34°06' E 134°60'3 6.2
2017-Sep-18 13:01N 34°03' E 134°59'2 4.7
2017-Sep-18 12:31N 34°01' E 134°59'3 5.8
2017-Sep-18 12:00N 33°58' E 134°59'3 5.5
2017-Sep-18 11:30N 33°55' E 134°59'3 6.1
2017-Sep-18 10:57N 33°52' E 134°59'  

Dump ship's entire track history